Flight Track Log - Related Links

Times and Time Zones

All times are in EDT time to prevent confusion due to time zone crossing. See the LBQ792 flight status page for this flight to view local times or setup timezone preferences in your user account.


Time Position Orientation Groundspeed Altitude Reporting Facility
EDT Latitude Longitude Course Direction KTS MPH feet Rate Location/Type
Tue 11:21:33 PM 43.0114 -78.9422 192° South 159 183 5,500  Level Cleveland Center
Tue 11:22:33 PM 42.9675 -78.9489 186° South 182 209 6,800 1,400 Climbing Cleveland Center
Tue 11:23:33 PM 42.9156 -78.9589 188° South 177 204 8,300 1,350 Climbing Cleveland Center
Tue 11:24:33 PM 42.8700 -78.9714 191° South 177 204 9,500 1,000 Climbing Cleveland Center
Tue 11:25:33 PM 42.8181 -78.9811 188° South 188 216 10,300 1,150 Climbing Cleveland Center
Tue 11:26:33 PM 42.7703 -78.9908 188° South 188 216 11,800 850 Climbing Cleveland Center
Tue 11:27:33 PM 42.7161 -79.0036 190° South 198 228 12,000 100 Climbing Cleveland Center
Tue 11:28:33 PM 42.6497 -79.0164 188° South 221 254 12,000 500 Level Cleveland Center
Tue 11:29:33 PM 42.5875 -79.0322 191° South 237 273 13,000 1,150 Climbing Cleveland Center
Tue 11:30:33 PM 42.5314 -79.0447 189° South 224 258 14,300 1,350 Climbing Cleveland Center
Tue 11:31:33 PM 42.4772 -79.0575 190° South 211 243 15,700 1,250 Climbing Cleveland Center
Tue 11:32:33 PM 42.4169 -79.0728 191° South 204 235 16,800 1,050 Climbing Cleveland Center
Tue 11:33:33 PM 42.3650 -79.0825 188° South 197 227 17,800 900 Climbing Cleveland Center
Tue 11:34:33 PM 42.3131 -79.0922 188° South 202 232 18,600 900 Climbing Cleveland Center
Tue 11:35:33 PM 42.2569 -79.1075 191° South 202 232 19,600 700 Climbing Cleveland Center
Tue 11:36:33 PM 42.2008 -79.1200 189° South 202 232 20,000 200 Climbing Cleveland Center
Tue 11:37:33 PM 42.1344 -79.1439 195° South 216 249 20,000  Level Cleveland Center
Tue 11:38:33 PM 42.0681 -79.1706 197° South 241 277 20,000  Level Cleveland Center
Tue 11:39:33 PM 41.9975 -79.1917 193° South 253 291 20,000  Level Cleveland Center
Tue 11:40:33 PM 41.9269 -79.2183 196° South 264 304 20,000  Level Cleveland Center
Tue 11:41:33 PM 41.8606 -79.2450 197° South 259 298 20,000  Level Cleveland Center
Tue 11:42:33 PM 41.7900 -79.2714 196° South 259 298 20,000  Level Cleveland Center
Tue 11:43:33 PM 41.7172 -79.2953 194° South 264 304 20,000  Level Cleveland Center
Tue 11:44:33 PM 41.6486 -79.3217 196° South 264 304 20,000  Level Cleveland Center
Tue 11:45:33 PM 41.5781 -79.3453 194° South 264 304 20,000  Level Cleveland Center
Tue 11:46:33 PM 41.5075 -79.3742 197° South 259 298 20,000 -200 Level Cleveland Center
Tue 11:47:33 PM 41.4328 -79.3978 193° South 259 298 19,600 -750 Descending Cleveland Center
Tue 11:48:33 PM 41.3475 -79.4297 196° South 281 323 18,500 -950 Descending Cleveland Center
Tue 11:49:33 PM 41.2667 -79.4589 195° South 292 336 17,700 -900 Descending Cleveland Center
Tue 11:50:33 PM 41.1878 -79.4878 195° South 297 342 16,700 -1,150 Descending Cleveland Center
Tue 11:51:33 PM 41.1086 -79.5167 195° South 297 342 15,400 -1,350 Descending Cleveland Center
Tue 11:52:33 PM 41.0358 -79.5397 193° South 297 342 14,000 -1,500 Descending Cleveland Center
Tue 11:53:33 PM 40.9633 -79.5658 195° South 285 328 12,400 -1,500 Descending Cleveland Center
Tue 11:54:33 PM 40.8906 -79.6081 204° Southwest 280 322 11,000 -1,450 Descending Cleveland Center
Tue 11:55:33 PM 40.8200 -79.6503 204° Southwest 285 328 9,500 -1,450 Descending Cleveland Center
Tue 11:56:33 PM 40.7517 -79.6922 205° Southwest 285 328 8,100 -1,350 Descending Cleveland Center
Tue 11:57:33 PM 40.6831 -79.7344 205° Southwest 280 322 6,800 -1,350 Descending Cleveland Center
Tue 11:58:33 PM 40.6147 -79.7761 205° Southwest 280 322 5,400 -1,400 Descending Cleveland Center
Tue 11:59:33 PM 40.5503 -79.8153 205° Southwest 280 322 4,000 -1,250 Descending Cleveland Center
Wed 12:00:33 AM 40.4881 -79.8542 205° Southwest 269 310 2,900 -550 Descending Cleveland Center
Wed 12:01:33 AM 40.4278 -79.8847 201° Southwest 253 291 2,900  Level Cleveland Center
Wed 12:03:00 AM 40.3500 -79.9167 270° West  Level FlightAware Approximate

Login

Don't have an account? Register now (free) for customized features, flight alerts, and more!